Time;durP1;ratioP1;P1;durP2;ratioP2;P2;SDS_P1;SDS_P2;PMS_P1;PMS_P2;Temp;Humidity;BMP_temperature;BMP_pressure;BME280_temperature;BME280_humidity;BME280_pressure;Samples;Min_cycle;Max_cycle;Signal;HPM_P1;HPM_P2
2022/12/04 00:01:07;;;;;;;19.07;9.43;;;2.90;99.90;4.00;97067.00;;;;5109440;28;20580;-66
2022/12/04 00:03:58;;;;;;;18.53;10.63;;;2.80;99.90;4.00;97073.00;;;;5097770;28;20439;-66
2022/12/04 00:06:47;;;;;;;18.43;10.23;;;2.80;99.90;3.90;97073.00;;;;5097652;28;20191;-66
2022/12/04 00:09:36;;;;;;;20.50;10.50;;;2.90;99.90;3.90;97064.00;;;;5108309;28;20421;-66
2022/12/04 00:12:24;;;;;;;17.77;10.73;;;2.80;99.90;4.00;97065.00;;;;5108257;28;20461;-66
2022/12/04 00:15:15;;;;;;;16.20;9.43;;;4.10;99.90;4.20;97052.00;;;;5110166;28;20432;-66
2022/12/04 00:18:12;;;;;;;20.30;9.37;;;2.80;99.90;4.30;97041.00;;;;5108642;28;20202;-66
2022/12/04 00:21:04;;;;;;;19.73;10.47;;;2.80;99.90;4.30;97041.00;;;;5098941;28;20585;-66
2022/12/04 00:23:53;;;;;;;20.93;10.40;;;2.80;99.90;4.30;97044.00;;;;5104297;28;20253;-66
2022/12/04 00:26:42;;;;;;;16.23;10.30;;;2.90;99.90;4.30;97045.00;;;;5108423;28;20511;-66
2022/12/04 00:29:31;;;;;;;13.83;8.90;;;2.90;99.90;4.20;97049.00;;;;5100908;28;20206;-66
2022/12/04 00:32:21;;;;;;;16.10;9.87;;;2.90;99.90;4.20;97052.00;;;;5090206;28;20227;-66
2022/12/04 00:35:10;;;;;;;14.43;8.80;;;2.80;99.90;4.10;97064.00;;;;5108518;28;20191;-66
2022/12/04 00:37:58;;;;;;;16.73;9.80;;;2.90;99.90;4.00;97054.00;;;;5091870;28;20203;-66
2022/12/04 00:40:50;;;;;;;21.23;11.10;;;2.90;99.90;3.90;97054.00;;;;5092973;28;20265;-66
2022/12/04 00:43:39;;;;;;;13.73;9.87;;;4.00;99.90;4.00;97035.00;;;;5099614;28;20435;-66
2022/12/04 00:46:28;;;;;;;17.63;9.73;;;2.90;99.90;4.20;97027.00;;;;5112817;28;20213;-66
2022/12/04 00:49:18;;;;;;;19.83;10.53;;;2.80;99.90;4.30;97041.00;;;;5113096;28;20210;-67
2022/12/04 00:52:07;;;;;;;16.03;9.40;;;2.90;99.90;4.30;97039.00;;;;5110339;28;20858;-66
2022/12/04 00:54:56;;;;;;;15.80;9.93;;;2.90;99.90;4.20;97042.00;;;;5111157;28;20198;-66
2022/12/04 00:57:44;;;;;;;22.03;11.80;;;2.90;99.90;4.20;97040.00;;;;5111612;28;20199;-66
2022/12/04 01:00:33;;;;;;;13.37;8.73;;;2.90;99.90;4.30;97047.00;;;;5112370;28;20634;-66
2022/12/04 01:03:22;;;;;;;19.33;11.10;;;3.20;99.90;4.30;97055.00;;;;5094057;28;20211;-66
2022/12/04 01:06:21;;;;;;;19.57;10.10;;;3.00;99.90;4.30;97048.00;;;;5107024;28;20203;-66
2022/12/04 01:09:10;;;;;;;15.07;9.33;;;3.00;99.90;4.30;97042.00;;;;5091621;28;20277;-66
2022/12/04 01:11:59;;;;;;;15.30;10.00;;;3.00;99.90;4.40;97046.00;;;;5092192;28;20215;-66
2022/12/04 01:14:47;;;;;;;20.53;10.57;;;3.00;99.90;4.30;97054.00;;;;5100534;28;20412;-66
2022/12/04 01:17:36;;;;;;;20.03;10.87;;;3.00;99.90;4.30;97037.00;;;;5094104;28;20207;-66
2022/12/04 01:20:25;;;;;;;18.53;9.67;;;3.00;99.90;4.30;97038.00;;;;5110896;28;20233;-66
2022/12/04 01:23:16;;;;;;;19.60;9.70;;;3.20;99.90;4.30;97041.00;;;;5092071;28;20207;-66
2022/12/04 01:26:05;;;;;;;14.77;8.73;;;3.00;99.90;4.40;97040.00;;;;5098710;28;20191;-65
2022/12/04 01:28:54;;;;;;;14.07;9.13;;;3.00;99.90;4.40;97031.00;;;;5111136;28;20661;-65
2022/12/04 01:31:43;;;;;;;19.70;9.47;;;3.00;99.90;4.40;97030.00;;;;5111420;28;20221;-65
2022/12/04 01:34:32;;;;;;;19.50;8.67;;;3.00;99.90;4.40;97030.00;;;;5111315;28;20417;-66
2022/12/04 01:37:20;;;;;;;15.73;9.13;;;3.00;99.90;4.30;97032.00;;;;5100644;28;20199;-65
2022/12/04 01:40:15;;;;;;;23.33;9.73;;;2.90;99.90;4.30;97020.00;;;;5104556;28;20214;-66
2022/12/04 01:43:03;;;;;;;16.57;10.37;;;3.00;99.90;4.40;97030.00;;;;5111254;28;20615;-66
2022/12/04 01:45:55;;;;;;;18.23;10.77;;;3.00;99.90;4.30;97032.00;;;;5105158;28;20198;-65
2022/12/04 01:48:49;;;;;;;18.53;9.27;;;3.00;99.90;4.30;97027.00;;;;5102587;28;20194;-65
2022/12/04 01:51:42;;;;;;;17.20;8.77;;;3.00;99.90;4.30;97032.00;;;;5094120;28;20721;-65
2022/12/04 01:54:36;;;;;;;12.50;9.33;;;3.00;99.90;4.30;97031.00;;;;5098527;28;20218;-66
2022/12/04 01:57:31;;;;;;;12.67;8.43;;;3.00;99.90;4.30;97024.00;;;;5111503;28;20433;-65
2022/12/04 02:00:20;;;;;;;15.07;8.40;;;3.00;99.90;4.30;97021.00;;;;5110700;28;20432;-66
2022/12/04 02:03:09;;;;;;;14.77;9.13;;;3.00;99.90;4.20;97011.00;;;;5102336;28;20195;-66
2022/12/04 02:05:58;;;;;;;16.03;6.43;;;3.00;99.90;4.30;97008.00;;;;5098516;28;20203;-66
2022/12/04 02:08:47;;;;;;;12.17;7.73;;;3.00;99.90;4.30;97007.00;;;;5108187;28;20209;-66
2022/12/04 02:11:44;;;;;;;12.73;6.30;;;3.00;99.90;4.30;97001.00;;;;5104168;28;20222;-66
2022/12/04 02:14:45;;;;;;;16.07;8.10;;;3.00;99.90;4.20;96999.00;;;;5111772;28;20617;-66
2022/12/04 02:17:42;;;;;;;14.27;7.87;;;3.00;99.90;4.30;96989.00;;;;5104465;28;20198;-66
2022/12/04 02:20:34;;;;;;;18.20;7.93;;;3.00;99.90;4.30;96996.00;;;;5102790;28;20457;-66
2022/12/04 02:23:49;;;;;;;11.17;7.20;;;2.90;99.90;4.20;96989.00;;;;5101286;28;20217;-66
2022/12/04 02:26:44;;;;;;;13.00;7.37;;;2.90;99.90;4.10;96985.00;;;;5105391;28;20681;-66
2022/12/04 02:29:40;;;;;;;11.70;8.00;;;3.00;99.90;4.20;96987.00;;;;5111153;28;20217;-66
2022/12/04 02:32:37;;;;;;;10.57;8.13;;;3.00;99.90;4.10;96983.00;;;;5110412;28;20199;-66
2022/12/04 02:35:31;;;;;;;14.30;8.10;;;2.90;99.90;4.20;96988.00;;;;5105554;28;20230;-66
2022/12/04 02:38:25;;;;;;;12.87;8.10;;;2.90;99.90;4.30;96976.00;;;;5105149;28;20433;-66
2022/12/04 02:41:20;;;;;;;13.10;6.57;;;2.90;99.90;4.30;96986.00;;;;5096840;28;20223;-66
2022/12/04 02:44:12;;;;;;;20.27;9.50;;;2.90;99.90;4.20;96986.00;;;;5104067;28;20425;-65
2022/12/04 02:47:07;;;;;;;13.37;7.87;;;3.00;99.90;4.20;96976.00;;;;5098414;28;21068;-66
2022/12/04 02:49:59;;;;;;;12.83;7.63;;;2.70;99.90;4.20;96979.00;;;;5099079;28;20209;-65
2022/12/04 02:52:53;;;;;;;13.60;7.83;;;2.90;99.90;4.30;96977.00;;;;5107054;28;20198;-66
2022/12/04 02:55:48;;;;;;;11.97;6.63;;;2.90;99.90;4.20;96971.00;;;;5102393;28;20199;-65
2022/12/04 02:58:42;;;;;;;11.53;7.40;;;2.90;99.90;4.30;96969.00;;;;5095958;28;20190;-65
2022/12/04 03:01:37;;;;;;;14.97;6.57;;;2.90;99.90;4.20;96965.00;;;;5110178;28;20219;-65
2022/12/04 03:04:30;;;;;;;12.30;7.57;;;2.90;99.90;3.80;96960.00;;;;5106259;28;20206;-66
2022/12/04 03:07:26;;;;;;;13.37;6.97;;;2.90;99.90;3.80;96964.00;;;;5090435;28;20210;-66
2022/12/04 03:10:21;;;;;;;15.20;8.00;;;2.80;99.90;3.70;96967.00;;;;5107946;28;20225;-66
2022/12/04 03:13:15;;;;;;;15.13;7.40;;;2.80;99.90;3.60;96957.00;;;;5106386;28;20634;-66
2022/12/04 03:16:10;;;;;;;14.23;8.90;;;2.80;99.90;3.80;96965.00;;;;5088600;28;20429;-66
2022/12/04 03:19:06;;;;;;;12.97;6.50;;;2.80;99.90;3.70;96969.00;;;;5102083;28;20207;-66
2022/12/04 03:22:01;;;;;;;13.80;7.87;;;2.70;99.90;3.80;96975.00;;;;5089257;28;20967;-66
2022/12/04 03:24:53;;;;;;;12.13;6.83;;;2.80;99.90;3.90;96963.00;;;;5104491;28;20198;-66
2022/12/04 03:27:52;;;;;;;11.20;7.17;;;2.80;99.90;4.00;96957.00;;;;5097000;28;20475;-66
2022/12/04 03:30:49;;;;;;;12.50;8.47;;;2.80;99.90;4.10;96962.00;;;;5095994;28;20947;-66
2022/12/04 03:33:42;;;;;;;13.57;8.47;;;2.80;99.90;4.20;96979.00;;;;5106573;28;21054;-66
2022/12/04 03:36:36;;;;;;;10.73;7.53;;;2.80;99.90;4.20;96982.00;;;;5094450;28;20198;-65
2022/12/04 03:39:34;;;;;;;9.13;6.23;;;2.90;99.90;4.30;96982.00;;;;5106950;28;20435;-66
2022/12/04 03:42:27;;;;;;;17.20;8.90;;;2.90;99.90;4.30;96979.00;;;;5099236;28;20213;-66
2022/12/04 03:45:22;;;;;;;10.50;7.53;;;2.90;99.90;4.40;96993.00;;;;5109711;28;20416;-66
2022/12/04 03:48:18;;;;;;;11.33;7.50;;;2.90;99.90;4.30;96989.00;;;;5090391;28;20210;-65
2022/12/04 03:51:17;;;;;;;10.90;7.60;;;3.00;99.90;4.30;96981.00;;;;5099930;28;20984;-66
2022/12/04 03:54:11;;;;;;;9.30;7.70;;;3.00;99.90;4.30;96986.00;;;;5089781;28;20260;-65
2022/12/04 03:57:07;;;;;;;12.70;7.67;;;3.00;99.90;4.30;96974.00;;;;5088799;28;20218;-66
2022/12/04 04:00:04;;;;;;;7.90;6.30;;;3.00;99.90;4.30;96973.00;;;;5103651;28;20202;-66
2022/12/04 04:02:59;;;;;;;7.20;6.50;;;3.00;99.90;4.20;96973.00;;;;5088565;28;20200;-65
2022/12/04 04:05:53;;;;;;;8.17;6.87;;;3.00;99.90;4.20;96977.00;;;;5102716;28;20207;-65
2022/12/04 04:08:46;;;;;;;9.57;6.73;;;3.00;99.90;4.20;96974.00;;;;5090717;28;20430;-66
2022/12/04 04:11:41;;;;;;;14.33;6.43;;;3.00;99.90;4.00;96983.00;;;;5102140;28;20230;-66
2022/12/04 04:24:15;;;;;;;12.20;7.50;;;2.90;99.90;4.30;96977.00;;;;5111065;28;20586;-66
2022/12/04 04:27:04;;;;;;;16.57;8.57;;;2.90;99.90;4.30;96969.00;;;;5105811;28;20207;-66
2022/12/04 04:29:54;;;;;;;12.60;7.73;;;3.00;99.90;4.30;96968.00;;;;5093748;28;20727;-66
2022/12/04 04:32:50;;;;;;;12.97;6.97;;;2.90;99.90;4.20;96971.00;;;;5101981;28;20420;-65
2022/12/04 04:35:48;;;;;;;10.07;7.53;;;3.00;99.90;4.10;96956.00;;;;5105235;28;20608;-65
2022/12/04 04:38:44;;;;;;;10.13;7.00;;;3.00;99.90;3.90;96963.00;;;;5109414;28;20429;-65
2022/12/04 04:41:39;;;;;;;8.87;7.13;;;2.90;99.90;4.00;96968.00;;;;5095948;28;20222;-66
2022/12/04 04:44:34;;;;;;;9.23;5.73;;;2.90;99.90;3.80;96965.00;;;;5111275;28;20199;-66
2022/12/04 04:47:32;;;;;;;13.83;7.73;;;2.80;99.90;3.80;96959.00;;;;5101401;28;20200;-64
2022/12/04 04:50:23;;;;;;;10.70;7.20;;;2.80;99.90;3.90;96949.00;;;;5111513;28;20225;-66
2022/12/04 04:53:16;;;;;;;14.67;8.53;;;2.80;99.90;3.80;96952.00;;;;5111802;28;20948;-66
2022/12/04 04:56:07;;;;;;;9.60;6.93;;;2.80;99.90;3.80;96963.00;;;;5110658;28;20424;-65
2022/12/04 04:58:55;;;;;;;12.00;7.57;;;2.80;99.90;3.90;96944.00;;;;5101526;28;20444;-65
2022/12/04 05:01:46;;;;;;;10.00;7.57;;;2.80;99.90;3.90;96953.00;;;;5094035;28;20226;-66
2022/12/04 05:04:36;;;;;;;10.90;6.40;;;2.80;99.90;3.90;96956.00;;;;5104318;28;20437;-65
2022/12/04 05:07:25;;;;;;;9.33;6.43;;;2.80;99.90;3.80;96952.00;;;;5096071;28;21092;-66
2022/12/04 05:10:14;;;;;;;15.60;7.90;;;2.60;99.90;4.00;96950.00;;;;5090628;28;20429;-64
2022/12/04 05:13:02;;;;;;;10.83;6.83;;;;;3.90;96952.00;;;;5098138;28;20203;-65
2022/12/04 05:15:58;;;;;;;13.70;8.20;;;2.80;99.90;4.10;96956.00;;;;5107006;28;20457;-66
2022/12/04 05:21:51;;;;;;;10.53;6.77;;;2.80;99.90;4.00;96977.00;;;;5103081;28;20444;-65
2022/12/04 05:24:39;;;;;;;12.50;7.10;;;3.00;99.90;4.10;96975.00;;;;5112186;28;20423;-66
2022/12/04 05:27:30;;;;;;;12.23;6.90;;;2.80;99.90;4.20;96982.00;;;;5093142;28;20210;-66
2022/12/04 05:30:19;;;;;;;15.30;8.73;;;2.90;99.90;4.30;96998.00;;;;5095174;28;20227;-66
2022/12/04 05:33:08;;;;;;;12.53;7.80;;;2.90;99.90;4.30;96991.00;;;;5103663;28;20580;-65
2022/12/04 05:35:58;;;;;;;14.33;6.90;;;3.00;99.90;4.30;96989.00;;;;5099922;28;20218;-66
2022/12/04 05:38:48;;;;;;;8.63;7.73;;;3.00;99.90;4.30;96987.00;;;;5102921;28;20195;-66
2022/12/04 05:41:37;;;;;;;8.73;6.37;;;3.00;99.90;4.30;96982.00;;;;5106929;28;20445;-66
2022/12/04 05:44:25;;;;;;;9.53;6.10;;;3.00;99.90;4.30;96991.00;;;;5108401;28;20195;-65
2022/12/04 05:47:14;;;;;;;8.30;6.87;;;3.00;99.90;4.40;96976.00;;;;5094960;28;20237;-66
2022/12/04 05:50:03;;;;;;;8.80;7.47;;;3.10;99.90;4.40;96971.00;;;;5101332;28;20421;-66
2022/12/04 05:52:52;;;;;;;10.40;7.40;;;3.10;99.90;4.20;96973.00;;;;5105358;28;20207;-65
2022/12/04 05:55:42;;;;;;;9.53;7.23;;;3.00;99.90;4.20;96986.00;;;;5093603;28;20230;-66
2022/12/04 05:58:31;;;;;;;12.90;7.20;;;3.10;99.90;4.20;96978.00;;;;5099935;28;20712;-66
2022/12/04 06:01:23;;;;;;;9.03;6.57;;;3.00;99.90;4.30;96979.00;;;;5104303;28;20455;-66
2022/12/04 06:04:12;;;;;;;10.93;7.00;;;3.00;99.90;4.30;96986.00;;;;5102130;28;20209;-65
2022/12/04 06:07:00;;;;;;;8.77;7.40;;;3.20;99.90;4.30;97007.00;;;;5109422;28;20197;-66
2022/12/04 06:09:49;;;;;;;10.27;7.27;;;3.10;99.90;4.40;97000.00;;;;5108526;28;20194;-66
2022/12/04 06:12:39;;;;;;;15.07;7.87;;;3.10;99.90;4.40;97015.00;;;;5095315;28;20207;-65
2022/12/04 06:15:28;;;;;;;14.03;7.80;;;3.10;99.90;4.40;97023.00;;;;5107464;28;20265;-66
2022/12/04 06:18:17;;;;;;;10.90;6.97;;;3.10;99.90;4.40;97022.00;;;;5099754;28;20450;-66
2022/12/04 06:21:06;;;;;;;12.50;7.30;;;3.10;99.90;4.50;97022.00;;;;5105868;28;20449;-65
2022/12/04 06:23:55;;;;;;;10.63;6.93;;;3.10;99.90;4.40;97015.00;;;;5093143;28;20206;-65
2022/12/04 06:26:45;;;;;;;13.80;7.97;;;3.10;99.90;4.40;97011.00;;;;5101317;28;20839;-66
2022/12/04 06:29:46;;;;;;;12.40;7.43;;;3.10;99.90;4.50;97007.00;;;;5107142;28;20190;-65
2022/12/04 06:32:35;;;;;;;7.60;6.80;;;3.10;99.90;4.50;97006.00;;;;5106783;28;20541;-66
2022/12/04 06:35:24;;;;;;;10.33;7.67;;;3.10;99.90;4.50;97018.00;;;;5106292;28;20230;-65
2022/12/04 06:38:13;;;;;;;8.60;7.13;;;3.10;99.90;4.40;97008.00;;;;5105443;28;20209;-65
2022/12/04 06:41:04;;;;;;;8.33;6.57;;;3.10;99.90;4.50;97008.00;;;;5106770;28;20219;-66
2022/12/04 06:43:53;;;;;;;9.67;6.23;;;3.20;99.90;4.40;97004.00;;;;5109724;28;20203;-66
2022/12/04 06:46:43;;;;;;;10.60;6.30;;;3.20;99.90;4.50;96993.00;;;;5109586;28;20229;-66
2022/12/04 06:49:35;;;;;;;9.87;7.17;;;3.10;99.90;4.40;96989.00;;;;5109645;28;20432;-66
2022/12/04 06:52:23;;;;;;;9.37;7.47;;;3.20;99.90;4.40;96993.00;;;;5110010;28;20685;-65
2022/12/04 06:55:12;;;;;;;9.17;6.80;;;3.20;99.90;4.20;96993.00;;;;5110245;28;20219;-66
2022/12/04 06:58:01;;;;;;;9.57;7.17;;;3.10;99.90;4.10;97007.00;;;;5109562;28;20199;-66
2022/12/04 07:00:49;;;;;;;11.97;7.67;;;3.10;99.90;4.20;97006.00;;;;5105365;28;20441;-65
2022/12/04 07:03:40;;;;;;;8.70;6.73;;;3.10;99.90;4.40;97002.00;;;;5108344;28;20199;-65
2022/12/04 07:06:33;;;;;;;9.17;7.53;;;3.10;99.90;4.30;97001.00;;;;5102969;28;20571;-66
2022/12/04 07:09:22;;;;;;;12.13;7.30;;;3.10;99.90;4.40;96998.00;;;;5100017;28;20692;-65
2022/12/04 07:12:10;;;;;;;8.53;7.50;;;3.10;99.90;4.50;96988.00;;;;5099581;28;20830;-66
2022/12/04 07:14:59;;;;;;;9.00;7.53;;;3.10;99.90;4.50;96978.00;;;;5108689;28;20453;-65
2022/12/04 07:17:48;;;;;;;10.00;7.07;;;3.10;99.90;4.50;96978.00;;;;5104871;28;20677;-66
2022/12/04 07:20:40;;;;;;;11.97;7.37;;;3.20;99.90;4.60;96980.00;;;;5101901;28;20479;-65
2022/12/04 07:23:29;;;;;;;13.03;8.63;;;3.20;99.90;4.50;96980.00;;;;5102758;28;20818;-66
2022/12/04 07:26:19;;;;;;;12.23;9.10;;;3.20;99.90;4.50;96973.00;;;;5100966;28;20775;-65
2022/12/04 07:29:09;;;;;;;16.30;8.20;;;3.20;99.90;4.50;96982.00;;;;5097917;28;20210;-65
2022/12/04 07:31:57;;;;;;;12.47;8.83;;;3.20;99.90;4.50;96988.00;;;;5104429;28;20906;-66
2022/12/04 07:34:47;;;;;;;14.63;9.27;;;3.20;99.90;4.40;97004.00;;;;5107408;28;20205;-65
2022/12/04 07:37:37;;;;;;;13.97;8.53;;;3.20;99.90;4.50;97006.00;;;;5098315;28;20194;-65
2022/12/04 07:40:26;;;;;;;11.07;8.30;;;3.20;99.90;4.60;97025.00;;;;5103429;28;20210;-66
2022/12/04 07:43:15;;;;;;;13.13;8.70;;;3.30;99.90;4.60;97015.00;;;;5102675;28;20209;-65
2022/12/04 07:46:08;;;;;;;15.30;7.93;;;3.40;99.90;4.60;96993.00;;;;5099968;28;20209;-66
2022/12/04 07:48:59;;;;;;;13.33;8.13;;;3.30;99.90;4.60;96996.00;;;;5096831;28;20576;-65
2022/12/04 07:51:47;;;;;;;11.17;8.27;;;3.30;99.90;4.60;96982.00;;;;5105402;28;20226;-66
2022/12/04 07:54:38;;;;;;;11.77;7.97;;;3.20;99.90;4.50;96982.00;;;;5101469;28;21122;-65
2022/12/04 07:57:29;;;;;;;12.30;9.53;;;3.30;99.90;4.60;96997.00;;;;5096924;28;20210;-65
2022/12/04 08:00:19;;;;;;;12.13;8.10;;;3.30;99.90;4.70;97001.00;;;;5096980;28;20987;-65
2022/12/04 08:03:08;;;;;;;16.33;10.50;;;3.30;99.90;4.70;97004.00;;;;5087999;28;20214;-65
2022/12/04 08:06:00;;;;;;;10.60;8.40;;;3.30;99.90;4.80;96997.00;;;;5103376;28;20598;-66
2022/12/04 08:08:49;;;;;;;11.60;8.97;;;3.40;99.90;4.60;96990.00;;;;5104525;28;20203;-65
2022/12/04 08:11:40;;;;;;;12.63;9.37;;;3.40;99.90;4.60;96984.00;;;;5091366;28;20238;-65
2022/12/04 08:14:29;;;;;;;15.80;8.67;;;3.40;99.90;4.40;96989.00;;;;5105034;28;20199;-65
2022/12/04 08:17:18;;;;;;;19.37;11.07;;;3.40;99.90;4.30;97008.00;;;;5092751;28;21466;-65
2022/12/04 08:20:09;;;;;;;13.77;9.63;;;3.30;99.90;4.40;96997.00;;;;5103652;28;20199;-66
2022/12/04 08:22:58;;;;;;;14.87;11.10;;;3.30;99.90;4.30;96997.00;;;;5095147;28;20202;-66
2022/12/04 08:25:46;;;;;;;14.20;9.87;;;3.30;99.90;4.70;96987.00;;;;5107003;28;20198;-66
2022/12/04 08:28:37;;;;;;;12.80;9.83;;;3.30;99.90;4.80;97008.00;;;;5094307;28;20202;-66
2022/12/04 08:31:31;;;;;;;14.50;9.00;;;3.40;99.90;4.60;97003.00;;;;5098357;28;20217;-65
2022/12/04 08:34:20;;;;;;;14.77;10.10;;;3.40;99.90;4.60;96998.00;;;;5105478;28;20194;-65
2022/12/04 08:37:09;;;;;;;14.37;10.33;;;3.40;99.90;4.70;96992.00;;;;5097421;28;20724;-65
2022/12/04 08:39:58;;;;;;;14.40;9.90;;;3.20;99.90;4.70;97005.00;;;;5107774;28;20214;-65
2022/12/04 08:42:46;;;;;;;12.10;10.00;;;3.50;99.90;4.60;97007.00;;;;5105730;28;20194;-65
2022/12/04 08:45:37;;;;;;;16.03;11.60;;;3.50;99.90;4.70;97001.00;;;;5096764;28;20751;-66
2022/12/04 08:48:26;;;;;;;16.90;10.77;;;3.50;99.90;4.70;97010.00;;;;5099368;28;20214;-66
2022/12/04 08:51:18;;;;;;;13.37;9.97;;;3.40;99.90;4.70;97020.00;;;;5095917;28;20223;-66
2022/12/04 08:54:08;;;;;;;15.20;10.60;;;3.40;99.90;4.80;97008.00;;;;5102347;28;20402;-66
2022/12/04 08:56:57;;;;;;;14.63;9.17;;;3.50;99.90;4.80;97004.00;;;;5103472;28;20614;-66
2022/12/04 08:59:46;;;;;;;15.80;10.40;;;3.50;99.90;4.90;97008.00;;;;5103096;28;20198;-66
2022/12/04 09:02:37;;;;;;;18.43;10.97;;;3.50;99.90;4.90;97003.00;;;;5098764;28;20226;-66
2022/12/04 09:05:25;;;;;;;18.83;11.97;;;3.60;99.90;4.90;96990.00;;;;5107524;28;20225;-65
2022/12/04 09:08:16;;;;;;;15.00;10.37;;;3.60;99.90;5.00;97005.00;;;;5101140;28;20605;-65
2022/12/04 09:11:06;;;;;;;15.23;10.67;;;3.60;99.90;5.10;96990.00;;;;5097818;28;20215;-65
2022/12/04 09:13:55;;;;;;;17.60;11.77;;;3.70;99.90;4.90;96993.00;;;;5106627;28;20199;-66
2022/12/04 09:16:44;;;;;;;18.60;10.93;;;3.80;99.90;5.00;96998.00;;;;5100347;28;20215;-65
2022/12/04 09:19:35;;;;;;;17.80;10.53;;;3.70;99.90;4.80;96999.00;;;;5104154;28;20218;-65
2022/12/04 09:22:24;;;;;;;15.13;10.17;;;3.70;99.90;4.80;96998.00;;;;5101287;28;20538;-65
2022/12/04 09:25:13;;;;;;;18.30;10.53;;;3.70;99.90;4.80;96997.00;;;;5102863;28;20234;-65
2022/12/04 09:28:01;;;;;;;17.20;11.07;;;3.70;99.90;4.90;97003.00;;;;5097838;28;20630;-66
2022/12/04 09:30:58;;;;;;;15.73;10.97;;;3.70;99.90;4.90;96990.00;;;;5102896;28;20219;-65
2022/12/04 09:33:47;;;;;;;13.63;9.70;;;3.70;99.90;4.90;96993.00;;;;5096433;28;20198;-66
2022/12/04 09:36:38;;;;;;;18.90;11.77;;;3.70;99.90;5.00;96991.00;;;;5101275;28;20700;-66
2022/12/04 09:39:26;;;;;;;17.13;12.20;;;3.90;99.90;5.30;96984.00;;;;5107906;28;20190;-65
2022/12/04 09:42:31;;;;;;;22.87;14.30;;;3.80;99.90;5.20;96988.00;;;;5109162;28;20222;-65
2022/12/04 09:45:24;;;;;;;16.03;11.80;;;3.90;99.90;5.20;96981.00;;;;5105646;28;20206;-66
2022/12/04 09:48:15;;;;;;;17.43;13.83;;;3.90;99.90;5.10;97004.00;;;;5093742;28;20200;-66
2022/12/04 09:51:07;;;;;;;19.03;13.07;;;3.90;99.90;5.30;97000.00;;;;5110414;28;20214;-65
2022/12/04 09:54:03;;;;;;;21.87;14.33;;;3.90;99.90;5.50;97003.00;;;;5099308;28;20195;-65
2022/12/04 09:56:59;;;;;;;18.40;12.50;;;4.00;99.90;5.50;96996.00;;;;5102320;28;20230;-66
2022/12/04 09:59:49;;;;;;;21.57;13.03;;;4.00;99.90;5.40;96997.00;;;;5103152;28;20202;-66
2022/12/04 10:02:40;;;;;;;20.27;14.90;;;4.10;99.90;5.20;97006.00;;;;5101630;28;20191;-65
2022/12/04 10:05:45;;;;;;;14.87;11.87;;;4.10;99.90;5.50;96992.00;;;;5102112;28;20215;-65
2022/12/04 10:08:36;;;;;;;18.20;10.30;;;4.10;99.90;5.60;97014.00;;;;5104437;28;20186;-65
2022/12/04 10:11:40;;;;;;;15.67;11.00;;;4.10;99.90;5.50;97000.00;;;;5099127;28;20219;-66
2022/12/04 10:14:49;;;;;;;19.90;11.83;;;4.10;99.90;5.50;96988.00;;;;5109691;28;20753;-66
2022/12/04 10:17:55;;;;;;;15.97;11.53;;;4.10;99.90;5.60;96990.00;;;;5096387;28;20223;-66
2022/12/04 10:21:10;;;;;;;15.67;11.00;;;4.10;99.90;5.50;96990.00;;;;5103820;28;20229;-65
2022/12/04 10:24:17;;;;;;;16.37;11.67;;;4.10;99.90;5.40;96980.00;;;;5101342;28;20202;-65
2022/12/04 10:27:14;;;;;;;14.87;12.07;;;4.10;99.90;5.40;96978.00;;;;5099851;28;20214;-66
2022/12/04 10:30:23;;;;;;;15.60;11.63;;;4.20;99.90;5.50;96974.00;;;;5099561;28;20203;-66
2022/12/04 10:33:18;;;;;;;21.00;12.63;;;4.10;99.90;5.50;96980.00;;;;5099074;28;20214;-66
2022/12/04 10:36:12;;;;;;;17.97;12.23;;;4.20;99.90;5.20;96975.00;;;;5098666;28;20203;-65
2022/12/04 10:39:07;;;;;;;21.97;15.10;;;4.10;99.90;5.50;96975.00;;;;5105038;28;20596;-66
2022/12/04 10:42:02;;;;;;;21.03;14.97;;;4.10;99.90;5.60;96971.00;;;;5105337;28;20227;-66
2022/12/04 10:44:52;;;;;;;19.53;13.20;;;4.10;99.90;5.60;96973.00;;;;5094283;28;20198;-65
2022/12/04 10:47:45;;;;;;;18.07;12.57;;;4.20;99.90;5.70;96973.00;;;;5094111;28;20203;-65
2022/12/04 10:50:34;;;;;;;15.07;11.07;;;4.20;99.90;5.80;96968.00;;;;5109398;28;20222;-65
2022/12/04 10:53:31;;;;;;;13.87;10.30;;;4.20;99.90;5.60;96972.00;;;;5102726;28;20214;-65
2022/12/04 10:56:22;;;;;;;16.90;11.67;;;4.30;99.90;5.70;96968.00;;;;5103705;28;20195;-65
2022/12/04 10:59:16;;;;;;;16.73;11.73;;;4.30;99.90;5.70;96965.00;;;;5106612;28;20198;-65
2022/12/04 11:02:20;;;;;;;15.63;12.20;;;4.30;99.90;5.80;96956.00;;;;5103946;28;20713;-65
2022/12/04 11:05:25;;;;;;;20.33;13.13;;;4.30;99.90;5.80;96950.00;;;;5096651;28;20576;-66
2022/12/04 11:08:24;;;;;;;18.20;12.67;;;4.30;99.90;5.80;96948.00;;;;5095041;28;20195;-66
2022/12/04 11:11:15;;;;;;;20.80;12.47;;;4.10;99.90;5.80;96954.00;;;;5099840;28;20232;-65
2022/12/04 11:14:07;;;;;;;21.00;15.23;;;4.40;99.90;5.80;96949.00;;;;5099563;28;20769;-65
2022/12/04 11:17:02;;;;;;;24.13;17.27;;;4.40;99.90;5.70;96945.00;;;;5096250;28;20586;-66
2022/12/04 11:20:02;;;;;;;28.77;16.70;;;4.30;99.90;5.60;96944.00;;;;5104351;28;20194;-66
2022/12/04 11:22:55;;;;;;;19.93;13.53;;;4.30;99.90;5.50;96942.00;;;;5104277;28;20202;-66
2022/12/04 11:25:48;;;;;;;22.40;15.43;;;4.20;99.90;5.50;96938.00;;;;5107268;28;20566;-65
2022/12/04 11:28:39;;;;;;;21.43;14.53;;;4.20;99.90;5.60;96941.00;;;;5100185;28;20867;-66
2022/12/04 11:31:31;;;;;;;18.87;13.03;;;4.20;99.90;5.70;96953.00;;;;5094848;28;20736;-66
2022/12/04 11:34:22;;;;;;;24.00;15.73;;;4.20;99.90;5.70;96940.00;;;;5101595;28;20218;-64
2022/12/04 11:37:24;;;;;;;26.33;14.47;;;4.30;99.90;5.80;96939.00;;;;5105623;28;20237;-66
2022/12/04 11:40:19;;;;;;;28.60;16.17;;;4.10;99.90;5.80;96942.00;;;;5099138;28;20206;-66
2022/12/04 11:43:16;;;;;;;22.77;14.83;;;4.30;99.90;5.80;96935.00;;;;5102406;28;20207;-66
2022/12/04 11:46:07;;;;;;;21.93;14.60;;;4.40;99.90;5.80;96926.00;;;;5099585;28;20202;-65
2022/12/04 11:48:56;;;;;;;27.10;15.40;;;4.40;99.90;5.80;96930.00;;;;5101102;28;20284;-66
2022/12/04 11:51:56;;;;;;;29.73;15.73;;;4.40;99.90;5.90;96925.00;;;;5102345;28;20218;-65
2022/12/04 11:54:57;;;;;;;25.60;17.33;;;4.40;99.90;5.90;96920.00;;;;5105772;28;20890;-66
2022/12/04 11:57:56;;;;;;;27.40;14.23;;;4.40;99.90;5.90;96925.00;;;;5100926;28;21504;-66
2022/12/04 12:00:50;;;;;;;21.30;15.10;;;4.50;99.90;6.00;96915.00;;;;5101417;28;20214;-66
2022/12/04 12:03:53;;;;;;;25.70;15.77;;;4.50;99.90;6.00;96915.00;;;;5093564;28;20210;-66
2022/12/04 12:06:57;;;;;;;24.60;14.20;;;4.50;99.90;6.00;96904.00;;;;5105100;28;20573;-65
2022/12/04 12:10:00;;;;;;;24.03;15.67;;;4.50;99.90;5.90;96905.00;;;;5102990;28;20198;-66
2022/12/04 12:13:01;;;;;;;24.83;14.73;;;4.50;99.90;5.80;96911.00;;;;5096173;28;20221;-65
2022/12/04 12:16:00;;;;;;;24.93;15.17;;;4.60;99.90;5.70;96903.00;;;;5095718;28;20203;-65
2022/12/04 12:19:12;;;;;;;23.23;16.97;;;4.60;99.90;5.90;96897.00;;;;5104670;28;20225;-65
2022/12/04 12:22:10;;;;;;;23.87;14.97;;;4.60;99.90;5.90;96886.00;;;;5099018;28;20620;-65
2022/12/04 12:25:14;;;;;;;21.77;15.00;;;4.60;99.90;5.90;96893.00;;;;5097248;28;20209;-65
2022/12/04 12:28:20;;;;;;;20.13;15.43;;;4.60;99.90;6.00;96877.00;;;;5092500;28;20689;-65
2022/12/04 12:31:34;;;;;;;28.43;16.50;;;4.60;99.90;5.90;96888.00;;;;5109241;28;20214;-65
2022/12/04 12:34:32;;;;;;;20.10;15.53;;;4.60;99.90;6.10;96877.00;;;;5104053;28;20191;-65
2022/12/04 12:37:27;;;;;;;22.80;15.57;;;4.70;99.90;6.20;96870.00;;;;5108521;28;20226;-66
2022/12/04 12:40:28;;;;;;;25.10;15.13;;;4.60;99.90;6.20;96868.00;;;;5102687;28;20199;-66
2022/12/04 12:43:28;;;;;;;27.30;15.10;;;4.70;99.90;6.10;96861.00;;;;5111539;28;20610;-66
2022/12/04 12:46:22;;;;;;;24.73;15.13;;;4.80;99.90;6.10;96858.00;;;;5098495;28;20658;-66
2022/12/04 12:49:18;;;;;;;23.77;15.17;;;4.80;99.90;6.10;96863.00;;;;5104639;28;20577;-65
2022/12/04 12:52:15;;;;;;;24.93;14.13;;;4.70;99.90;6.10;96860.00;;;;5109008;28;20215;-66
2022/12/04 12:55:18;;;;;;;24.97;14.80;;;4.70;99.90;6.20;96851.00;;;;5110651;28;20199;-66
2022/12/04 12:58:13;;;;;;;21.37;14.27;;;4.70;99.90;6.20;96854.00;;;;5111159;28;20225;-65
2022/12/04 13:01:08;;;;;;;21.03;14.50;;;4.80;99.90;6.20;96852.00;;;;5107944;28;20211;-65
2022/12/04 13:04:05;;;;;;;22.37;13.03;;;4.80;99.90;6.10;96849.00;;;;5108479;28;20190;-64
2022/12/04 13:07:26;;;;;;;18.17;13.90;;;4.80;99.90;6.20;96860.00;;;;5108958;28;20197;-65